sensor_id;sensor_type;location;lat;lon;timestamp;pressure;altitude;pressure_sealevel;temperature;humidity
71791;BME280;59638;52.126;5.434;2024-03-29T00:00:38;99057.38;;;8.25;100.00
71791;BME280;59638;52.126;5.434;2024-03-29T00:03:04;99053.91;;;8.25;100.00
71791;BME280;59638;52.126;5.434;2024-03-29T00:05:29;99055.75;;;8.16;100.00
71791;BME280;59638;52.126;5.434;2024-03-29T00:07:55;99047.53;;;8.11;100.00
71791;BME280;59638;52.126;5.434;2024-03-29T00:10:20;99054.28;;;8.05;100.00
71791;BME280;59638;52.126;5.434;2024-03-29T00:12:46;99041.97;;;7.98;100.00
71791;BME280;59638;52.126;5.434;2024-03-29T00:15:11;99043.94;;;7.96;100.00
71791;BME280;59638;52.126;5.434;2024-03-29T00:17:37;99039.50;;;7.88;100.00
71791;BME280;59638;52.126;5.434;2024-03-29T00:20:04;99049.84;;;7.81;100.00
71791;BME280;59638;52.126;5.434;2024-03-29T00:22:30;99052.81;;;7.86;100.00
71791;BME280;59638;52.126;5.434;2024-03-29T00:24:55;99062.66;;;7.84;100.00
71791;BME280;59638;52.126;5.434;2024-03-29T00:27:21;99058.03;;;7.78;100.00
71791;BME280;59638;52.126;5.434;2024-03-29T00:29:51;99056.75;;;7.82;100.00
71791;BME280;59638;52.126;5.434;2024-03-29T00:32:20;99065.13;;;7.86;100.00
71791;BME280;59638;52.126;5.434;2024-03-29T00:34:48;99057.41;;;7.84;100.00
71791;BME280;59638;52.126;5.434;2024-03-29T00:37:14;99062.16;;;7.81;100.00
71791;BME280;59638;52.126;5.434;2024-03-29T00:39:39;99070.53;;;7.76;100.00
71791;BME280;59638;52.126;5.434;2024-03-29T00:42:05;99072.84;;;7.79;100.00
71791;BME280;59638;52.126;5.434;2024-03-29T00:44:34;99074.16;;;7.83;100.00
71791;BME280;59638;52.126;5.434;2024-03-29T00:47:04;99079.88;;;7.79;100.00
71791;BME280;59638;52.126;5.434;2024-03-29T00:49:30;99091.72;;;7.83;100.00
71791;BME280;59638;52.126;5.434;2024-03-29T00:51:55;99085.31;;;7.85;100.00
71791;BME280;59638;52.126;5.434;2024-03-29T00:54:21;99090.25;;;7.88;100.00
71791;BME280;59638;52.126;5.434;2024-03-29T00:56:48;99088.28;;;7.90;100.00
71791;BME280;59638;52.126;5.434;2024-03-29T00:59:14;99086.63;;;7.89;100.00
71791;BME280;59638;52.126;5.434;2024-03-29T01:01:39;99094.34;;;7.91;100.00
71791;BME280;59638;52.126;5.434;2024-03-29T01:04:05;99096.66;;;7.94;100.00
71791;BME280;59638;52.126;5.434;2024-03-29T01:06:30;99098.78;;;7.90;100.00
71791;BME280;59638;52.126;5.434;2024-03-29T01:08:56;99093.03;;;7.87;100.00
71791;BME280;59638;52.126;5.434;2024-03-29T01:11:22;99096.66;;;7.86;100.00
71791;BME280;59638;52.126;5.434;2024-03-29T01:13:47;99096.66;;;7.86;100.00
71791;BME280;59638;52.126;5.434;2024-03-29T01:16:13;99091.22;;;7.96;100.00
71791;BME280;59638;52.126;5.434;2024-03-29T01:18:38;99085.97;;;7.96;100.00
71791;BME280;59638;52.126;5.434;2024-03-29T01:21:04;99086.63;;;7.98;100.00
71791;BME280;59638;52.126;5.434;2024-03-29T01:23:29;99079.72;;;7.97;100.00
71791;BME280;59638;52.126;5.434;2024-03-29T01:25:55;99061.34;;;7.97;100.00
71791;BME280;59638;52.126;5.434;2024-03-29T01:28:20;99069.88;;;7.99;100.00
71791;BME280;59638;52.126;5.434;2024-03-29T01:30:53;99074.81;;;8.02;100.00
71791;BME280;59638;52.126;5.434;2024-03-29T01:33:18;99071.69;;;7.98;100.00
71791;BME280;59638;52.126;5.434;2024-03-29T01:35:44;99073.84;;;7.95;100.00
71791;BME280;59638;52.126;5.434;2024-03-29T01:38:09;99066.13;;;7.93;100.00
71791;BME280;59638;52.126;5.434;2024-03-29T01:40:35;99061.69;;;7.94;100.00
71791;BME280;59638;52.126;5.434;2024-03-29T01:43:01;99061.50;;;7.95;100.00
71791;BME280;59638;52.126;5.434;2024-03-29T01:45:27;99061.34;;;7.97;100.00
71791;BME280;59638;52.126;5.434;2024-03-29T01:47:53;99050.00;;;7.96;100.00
71791;BME280;59638;52.126;5.434;2024-03-29T01:50:18;99042.94;;;7.97;100.00
71791;BME280;59638;52.126;5.434;2024-03-29T01:52:44;99051.19;;;7.94;100.00
71791;BME280;59638;52.126;5.434;2024-03-29T01:55:10;99047.56;;;7.95;100.00
71791;BME280;59638;52.126;5.434;2024-03-29T01:57:36;99038.88;;;7.86;100.00
71791;BME280;59638;52.126;5.434;2024-03-29T02:00:02;99027.53;;;7.77;100.00
71791;BME280;59638;52.126;5.434;2024-03-29T02:02:32;99018.00;;;7.76;100.00
71791;BME280;59638;52.126;5.434;2024-03-29T02:04:58;99032.13;;;7.75;100.00
71791;BME280;59638;52.126;5.434;2024-03-29T02:07:24;99028.50;;;7.68;100.00
71791;BME280;59638;52.126;5.434;2024-03-29T02:09:50;99031.13;;;7.60;100.00
71791;BME280;59638;52.126;5.434;2024-03-29T02:12:16;99035.25;;;7.62;100.00
71791;BME280;59638;52.126;5.434;2024-03-29T02:14:41;99030.47;;;7.58;100.00
71791;BME280;59638;52.126;5.434;2024-03-29T02:17:08;99029.16;;;7.54;100.00
71791;BME280;59638;52.126;5.434;2024-03-29T02:19:34;99049.19;;;7.47;100.00
71791;BME280;59638;52.126;5.434;2024-03-29T02:22:00;99045.41;;;7.49;100.00
71791;BME280;59638;52.126;5.434;2024-03-29T02:24:27;99055.72;;;7.51;100.00
71791;BME280;59638;52.126;5.434;2024-03-29T02:26:56;99058.00;;;7.46;100.00
71791;BME280;59638;52.126;5.434;2024-03-29T02:29:23;99055.91;;;7.49;100.00
71791;BME280;59638;52.126;5.434;2024-03-29T02:31:48;99060.63;;;7.46;100.00
71791;BME280;59638;52.126;5.434;2024-03-29T02:34:14;99077.72;;;7.42;100.00
71791;BME280;59638;52.126;5.434;2024-03-29T02:36:40;99076.72;;;7.34;100.00
71791;BME280;59638;52.126;5.434;2024-03-29T02:39:07;99060.97;;;7.34;100.00
71791;BME280;59638;52.126;5.434;2024-03-29T02:41:32;99071.63;;;7.33;100.00
71791;BME280;59638;52.126;5.434;2024-03-29T02:43:58;99073.09;;;7.35;100.00
71791;BME280;59638;52.126;5.434;2024-03-29T02:46:24;99077.69;;;7.33;100.00
71791;BME280;59638;52.126;5.434;2024-03-29T02:48:49;99070.13;;;7.39;100.00
71791;BME280;59638;52.126;5.434;2024-03-29T02:51:15;99072.13;;;7.45;100.00
71791;BME280;59638;52.126;5.434;2024-03-29T02:53:40;99062.44;;;7.45;100.00
71791;BME280;59638;52.126;5.434;2024-03-29T02:56:06;99065.56;;;7.49;100.00
71791;BME280;59638;52.126;5.434;2024-03-29T02:58:34;99068.19;;;7.49;100.00
71791;BME280;59638;52.126;5.434;2024-03-29T03:01:07;99061.78;;;7.51;100.00
71791;BME280;59638;52.126;5.434;2024-03-29T03:03:33;99066.22;;;7.51;100.00
71791;BME280;59638;52.126;5.434;2024-03-29T03:05:58;99076.91;;;7.57;100.00
71791;BME280;59638;52.126;5.434;2024-03-29T03:08:24;99068.56;;;7.62;100.00
71791;BME280;59638;52.126;5.434;2024-03-29T03:11:08;99064.47;;;7.59;100.00
71791;BME280;59638;52.126;5.434;2024-03-29T03:13:35;99066.56;;;7.64;100.00
71791;BME280;59638;52.126;5.434;2024-03-29T03:16:00;99064.94;;;7.63;100.00
71791;BME280;59638;52.126;5.434;2024-03-29T03:18:26;99071.00;;;7.63;100.00
71791;BME280;59638;52.126;5.434;2024-03-29T03:20:55;99076.13;;;7.73;100.00
71791;BME280;59638;52.126;5.434;2024-03-29T03:23:21;99075.31;;;7.81;100.00
71791;BME280;59638;52.126;5.434;2024-03-29T03:26:00;99082.38;;;7.88;100.00
71791;BME280;59638;52.126;5.434;2024-03-29T03:28:26;99086.97;;;7.95;100.00
71791;BME280;59638;52.126;5.434;2024-03-29T03:30:52;99096.50;;;7.96;100.00
71791;BME280;59638;52.126;5.434;2024-03-29T03:33:19;99097.47;;;8.03;100.00
71791;BME280;59638;52.126;5.434;2024-03-29T03:35:45;99091.56;;;8.09;100.00
71791;BME280;59638;52.126;5.434;2024-03-29T03:38:10;99082.69;;;8.10;100.00
71791;BME280;59638;52.126;5.434;2024-03-29T03:40:37;99090.25;;;8.05;100.00
71791;BME280;59638;52.126;5.434;2024-03-29T03:43:04;99094.03;;;8.10;100.00
71791;BME280;59638;52.126;5.434;2024-03-29T03:45:40;99089.94;;;8.08;100.00
71791;BME280;59638;52.126;5.434;2024-03-29T03:48:09;99087.28;;;8.16;100.00
71791;BME280;59638;52.126;5.434;2024-03-29T03:50:36;99094.84;;;8.19;100.00
71791;BME280;59638;52.126;5.434;2024-03-29T03:53:02;99102.41;;;8.22;100.00
71791;BME280;59638;52.126;5.434;2024-03-29T03:55:30;99092.22;;;8.27;100.00
71791;BME280;59638;52.126;5.434;2024-03-29T03:57:56;99100.75;;;8.21;100.00
71791;BME280;59638;52.126;5.434;2024-03-29T04:00:22;99108.81;;;8.20;100.00
71791;BME280;59638;52.126;5.434;2024-03-29T04:02:51;99112.75;;;8.24;100.00
71791;BME280;59638;52.126;5.434;2024-03-29T04:05:18;99098.47;;;8.26;100.00
71791;BME280;59638;52.126;5.434;2024-03-29T04:07:44;99102.38;;;8.30;100.00
71791;BME280;59638;52.126;5.434;2024-03-29T04:10:10;99102.75;;;8.35;100.00
71791;BME280;59638;52.126;5.434;2024-03-29T04:12:35;99114.59;;;8.39;100.00
71791;BME280;59638;52.126;5.434;2024-03-29T04:15:01;99113.78;;;8.39;100.00
71791;BME280;59638;52.126;5.434;2024-03-29T04:17:29;99118.69;;;8.42;100.00
71791;BME280;59638;52.126;5.434;2024-03-29T04:19:59;99111.78;;;8.41;100.00
71791;BME280;59638;52.126;5.434;2024-03-29T04:22:27;99116.84;;;8.51;100.00
71791;BME280;59638;52.126;5.434;2024-03-29T04:24:53;99102.72;;;8.52;100.00
71791;BME280;59638;52.126;5.434;2024-03-29T04:27:18;99097.47;;;8.52;100.00
71791;BME280;59638;52.126;5.434;2024-03-29T04:29:44;99100.41;;;8.57;100.00
71791;BME280;59638;52.126;5.434;2024-03-29T04:32:09;99095.50;;;8.54;100.00
71791;BME280;59638;52.126;5.434;2024-03-29T04:34:35;99093.50;;;8.56;100.00
71791;BME280;59638;52.126;5.434;2024-03-29T04:37:01;99100.09;;;8.60;100.00
71791;BME280;59638;52.126;5.434;2024-03-29T04:39:27;99096.66;;;8.59;100.00
71791;BME280;59638;52.126;5.434;2024-03-29T04:41:52;99092.50;;;8.65;100.00
71791;BME280;59638;52.126;5.434;2024-03-29T04:44:25;99104.97;;;8.71;100.00
71791;BME280;59638;52.126;5.434;2024-03-29T04:46:52;99118.63;;;8.75;100.00
71791;BME280;59638;52.126;5.434;2024-03-29T04:49:22;99088.22;;;8.72;100.00
71791;BME280;59638;52.126;5.434;2024-03-29T04:51:56;99095.44;;;8.70;100.00
71791;BME280;59638;52.126;5.434;2024-03-29T04:54:23;99104.69;;;8.66;100.00
71791;BME280;59638;52.126;5.434;2024-03-29T04:56:48;99092.53;;;8.57;100.00
71791;BME280;59638;52.126;5.434;2024-03-29T04:59:14;99094.03;;;8.43;100.00
71791;BME280;59638;52.126;5.434;2024-03-29T05:01:43;99101.75;;;8.28;100.00
71791;BME280;59638;52.126;5.434;2024-03-29T05:04:10;99095.81;;;8.18;100.00
71791;BME280;59638;52.126;5.434;2024-03-29T05:06:35;99105.69;;;8.08;100.00
71791;BME280;59638;52.126;5.434;2024-03-29T05:09:01;99102.91;;;7.93;100.00
71791;BME280;59638;52.126;5.434;2024-03-29T05:11:27;99122.41;;;7.82;100.00
71791;BME280;59638;52.126;5.434;2024-03-29T05:13:52;99114.19;;;7.69;100.00
71791;BME280;59638;52.126;5.434;2024-03-29T05:16:18;99119.25;;;7.62;100.00
71791;BME280;59638;52.126;5.434;2024-03-29T05:18:43;99120.06;;;7.55;100.00
71791;BME280;59638;52.126;5.434;2024-03-29T05:21:09;99105.44;;;7.52;100.00
71791;BME280;59638;52.126;5.434;2024-03-29T05:23:34;99112.84;;;7.49;100.00
71791;BME280;59638;52.126;5.434;2024-03-29T05:26:00;99101.97;;;7.44;100.00
71791;BME280;59638;52.126;5.434;2024-03-29T05:28:25;99106.41;;;7.43;100.00
71791;BME280;59638;52.126;5.434;2024-03-29T05:30:52;99101.97;;;7.44;100.00
71791;BME280;59638;52.126;5.434;2024-03-29T05:33:17;99132.19;;;7.48;100.00
71791;BME280;59638;52.126;5.434;2024-03-29T05:35:43;99146.63;;;7.52;100.00
71791;BME280;59638;52.126;5.434;2024-03-29T05:38:08;99147.63;;;7.51;100.00
71791;BME280;59638;52.126;5.434;2024-03-29T05:40:34;99151.88;;;7.52;100.00
71791;BME280;59638;52.126;5.434;2024-03-29T05:42:59;99153.56;;;7.53;100.00
71791;BME280;59638;52.126;5.434;2024-03-29T05:45:27;99164.06;;;7.53;100.00
71791;BME280;59638;52.126;5.434;2024-03-29T05:47:54;99162.38;;;7.52;100.00
71791;BME280;59638;52.126;5.434;2024-03-29T05:50:20;99156.66;;;7.48;100.00
71791;BME280;59638;52.126;5.434;2024-03-29T05:52:46;99158.44;;;7.48;100.00
71791;BME280;59638;52.126;5.434;2024-03-29T05:55:12;99174.19;;;7.48;100.00
71791;BME280;59638;52.126;5.434;2024-03-29T05:57:37;99184.53;;;7.49;100.00
71791;BME280;59638;52.126;5.434;2024-03-29T06:00:07;99182.06;;;7.48;100.00
71791;BME280;59638;52.126;5.434;2024-03-29T06:02:32;99179.63;;;7.46;100.00
71791;BME280;59638;52.126;5.434;2024-03-29T06:04:58;99171.88;;;7.45;100.00
71791;BME280;59638;52.126;5.434;2024-03-29T06:07:23;99176.13;;;7.46;100.00
71791;BME280;59638;52.126;5.434;2024-03-29T06:09:49;99187.16;;;7.49;100.00
71791;BME280;59638;52.126;5.434;2024-03-29T06:12:14;99199.13;;;7.52;100.00
71791;BME280;59638;52.126;5.434;2024-03-29T06:14:40;99199.13;;;7.52;100.00
71791;BME280;59638;52.126;5.434;2024-03-29T06:17:24;99195.03;;;7.49;100.00
71791;BME280;59638;52.126;5.434;2024-03-29T06:19:53;99202.75;;;7.51;100.00
71791;BME280;59638;52.126;5.434;2024-03-29T06:22:24;99228.72;;;7.54;100.00
71791;BME280;59638;52.126;5.434;2024-03-29T06:24:50;99211.97;;;7.55;100.00
71791;BME280;59638;52.126;5.434;2024-03-29T06:27:23;99212.28;;;7.52;100.00
71791;BME280;59638;52.126;5.434;2024-03-29T06:29:51;99207.38;;;7.57;100.00
71791;BME280;59638;52.126;5.434;2024-03-29T06:32:17;99199.84;;;7.62;100.00
71791;BME280;59638;52.126;5.434;2024-03-29T06:34:46;99208.09;;;7.75;100.00
71791;BME280;59638;52.126;5.434;2024-03-29T06:37:12;99212.25;;;7.86;100.00
71791;BME280;59638;52.126;5.434;2024-03-29T06:39:37;99212.72;;;7.81;100.00
71791;BME280;59638;52.126;5.434;2024-03-29T06:42:03;99213.69;;;7.80;100.00
71791;BME280;59638;52.126;5.434;2024-03-29T06:44:29;99210.75;;;7.83;100.00
71791;BME280;59638;52.126;5.434;2024-03-29T06:46:55;99212.06;;;7.87;100.00
71791;BME280;59638;52.126;5.434;2024-03-29T06:49:20;99202.22;;;7.89;100.00
71791;BME280;59638;52.126;5.434;2024-03-29T06:51:45;99201.41;;;7.89;100.00
71791;BME280;59638;52.126;5.434;2024-03-29T06:54:11;99201.22;;;7.82;100.00
71791;BME280;59638;52.126;5.434;2024-03-29T06:56:37;99205.84;;;7.88;100.00
71791;BME280;59638;52.126;5.434;2024-03-29T06:59:02;99196.97;;;7.89;100.00
71791;BME280;59638;52.126;5.434;2024-03-29T07:01:28;99192.06;;;7.86;100.00
71791;BME280;59638;52.126;5.434;2024-03-29T07:03:53;99177.41;;;7.84;100.00
71791;BME280;59638;52.126;5.434;2024-03-29T07:06:19;99185.13;;;7.85;100.00
71791;BME280;59638;52.126;5.434;2024-03-29T07:08:44;99193.00;;;7.85;100.00
71791;BME280;59638;52.126;5.434;2024-03-29T07:11:10;99188.09;;;7.82;100.00
71791;BME280;59638;52.126;5.434;2024-03-29T07:13:36;99190.53;;;7.84;100.00
71791;BME280;59638;52.126;5.434;2024-03-29T07:16:03;99193.34;;;7.90;100.00
71791;BME280;59638;52.126;5.434;2024-03-29T07:18:29;99199.59;;;7.98;100.00
71791;BME280;59638;52.126;5.434;2024-03-29T07:20:55;99205.03;;;7.96;100.00
71791;BME280;59638;52.126;5.434;2024-03-29T07:23:20;99203.88;;;7.90;100.00
71791;BME280;59638;52.126;5.434;2024-03-29T07:26:00;99203.69;;;7.92;100.00
71791;BME280;59638;52.126;5.434;2024-03-29T07:28:26;99209.13;;;7.90;100.00
71791;BME280;59638;52.126;5.434;2024-03-29T07:30:52;99210.44;;;7.86;100.00
71791;BME280;59638;52.126;5.434;2024-03-29T07:33:22;99222.41;;;7.89;100.00
71791;BME280;59638;52.126;5.434;2024-03-29T07:35:52;99224.56;;;7.94;100.00
71791;BME280;59638;52.126;5.434;2024-03-29T07:38:18;99235.09;;;7.94;100.00
71791;BME280;59638;52.126;5.434;2024-03-29T07:40:46;99237.84;;;7.92;100.00
71791;BME280;59638;52.126;5.434;2024-03-29T07:43:13;99234.75;;;7.97;100.00
71791;BME280;59638;52.126;5.434;2024-03-29T07:45:43;99238.03;;;7.99;100.00
71791;BME280;59638;52.126;5.434;2024-03-29T07:48:15;99232.13;;;8.05;100.00
71791;BME280;59638;52.126;5.434;2024-03-29T07:50:42;99221.97;;;8.18;100.00
71791;BME280;59638;52.126;5.434;2024-03-29T07:53:08;99223.66;;;8.27;100.00
71791;BME280;59638;52.126;5.434;2024-03-29T07:55:38;99229.59;;;8.37;100.00
71791;BME280;59638;52.126;5.434;2024-03-29T07:58:04;99228.94;;;8.52;100.00
71791;BME280;59638;52.126;5.434;2024-03-29T08:00:34;99240.44;;;8.51;100.00
71791;BME280;59638;52.126;5.434;2024-03-29T08:03:00;99235.88;;;8.61;100.00
71791;BME280;59638;52.126;5.434;2024-03-29T08:05:27;99239.78;;;8.65;100.00
71791;BME280;59638;52.126;5.434;2024-03-29T08:07:53;99224.84;;;8.65;100.00
71791;BME280;59638;52.126;5.434;2024-03-29T08:10:18;99224.66;;;8.51;100.00
71791;BME280;59638;52.126;5.434;2024-03-29T08:12:44;99210.38;;;8.45;100.00
71791;BME280;59638;52.126;5.434;2024-03-29T08:15:09;99208.91;;;8.59;100.00
71791;BME280;59638;52.126;5.434;2024-03-29T08:17:35;99212.81;;;8.87;100.00
71791;BME280;59638;52.126;5.434;2024-03-29T08:20:01;99226.53;;;9.38;100.00
71791;BME280;59638;52.126;5.434;2024-03-29T08:22:27;99221.44;;;10.07;100.00
71791;BME280;59638;52.126;5.434;2024-03-29T08:24:54;99243.34;;;9.76;100.00
71791;BME280;59638;52.126;5.434;2024-03-29T08:27:19;99242.63;;;9.51;100.00
71791;BME280;59638;52.126;5.434;2024-03-29T08:29:45;99235.53;;;9.91;100.00
71791;BME280;59638;52.126;5.434;2024-03-29T08:32:11;99232.69;;;10.32;100.00
71791;BME280;59638;52.126;5.434;2024-03-29T08:34:37;99208.34;;;10.68;100.00
71791;BME280;59638;52.126;5.434;2024-03-29T08:37:02;99213.03;;;10.95;100.00
71791;BME280;59638;52.126;5.434;2024-03-29T08:39:31;99228.19;;;11.16;100.00
71791;BME280;59638;52.126;5.434;2024-03-29T08:42:00;99232.22;;;12.07;100.00
71791;BME280;59638;52.126;5.434;2024-03-29T08:44:31;99236.03;;;12.41;100.00
71791;BME280;59638;52.126;5.434;2024-03-29T08:46:56;99254.56;;;12.05;100.00
71791;BME280;59638;52.126;5.434;2024-03-29T08:49:24;99249.47;;;11.14;100.00
71791;BME280;59638;52.126;5.434;2024-03-29T08:51:50;99255.63;;;10.92;100.00
71791;BME280;59638;52.126;5.434;2024-03-29T08:54:15;99237.06;;;10.62;100.00
71791;BME280;59638;52.126;5.434;2024-03-29T08:56:41;99248.59;;;10.70;100.00
71791;BME280;59638;52.126;5.434;2024-03-29T08:59:06;99251.38;;;10.68;100.00
71791;BME280;59638;52.126;5.434;2024-03-29T09:01:47;99242.81;;;10.66;100.00
71791;BME280;59638;52.126;5.434;2024-03-29T09:04:15;99247.50;;;10.56;100.00
71791;BME280;59638;52.126;5.434;2024-03-29T09:06:42;99240.81;;;10.91;100.00
71791;BME280;59638;52.126;5.434;2024-03-29T09:09:08;99250.31;;;11.44;100.00
71791;BME280;59638;52.126;5.434;2024-03-29T09:11:34;99249.06;;;11.85;100.00
71791;BME280;59638;52.126;5.434;2024-03-29T09:13:59;99251.25;;;12.17;100.00
71791;BME280;59638;52.126;5.434;2024-03-29T09:16:26;99256.56;;;12.39;100.00
71791;BME280;59638;52.126;5.434;2024-03-29T09:18:53;99252.28;;;12.59;100.00
71791;BME280;59638;52.126;5.434;2024-03-29T09:21:19;99241.22;;;12.49;100.00
71791;BME280;59638;52.126;5.434;2024-03-29T09:23:45;99248.53;;;12.68;100.00
71791;BME280;59638;52.126;5.434;2024-03-29T09:26:11;99257.09;;;12.49;100.00
71791;BME280;59638;52.126;5.434;2024-03-29T09:28:37;99260.69;;;12.05;100.00
71791;BME280;59638;52.126;5.434;2024-03-29T09:31:03;99269.63;;;11.75;100.00
71791;BME280;59638;52.126;5.434;2024-03-29T09:33:28;99274.53;;;11.48;100.00
71791;BME280;59638;52.126;5.434;2024-03-29T09:35:54;99279.28;;;11.38;100.00
71791;BME280;59638;52.126;5.434;2024-03-29T09:38:21;99285.13;;;11.33;100.00
71791;BME280;59638;52.126;5.434;2024-03-29T09:40:46;99269.44;;;11.61;100.00
71791;BME280;59638;52.126;5.434;2024-03-29T09:43:16;99283.31;;;11.63;100.00
71791;BME280;59638;52.126;5.434;2024-03-29T09:45:42;99280.22;;;11.45;100.00
71791;BME280;59638;52.126;5.434;2024-03-29T09:48:08;99281.50;;;11.49;100.00
71791;BME280;59638;52.126;5.434;2024-03-29T09:50:35;99282.94;;;11.37;100.00
71791;BME280;59638;52.126;5.434;2024-03-29T09:53:06;99277.19;;;11.48;100.00
71791;BME280;59638;52.126;5.434;2024-03-29T09:55:33;99290.78;;;11.45;100.00
71791;BME280;59638;52.126;5.434;2024-03-29T09:58:01;99296.78;;;11.39;100.00
71791;BME280;59638;52.126;5.434;2024-03-29T10:00:27;99297.88;;;11.30;100.00
71791;BME280;59638;52.126;5.434;2024-03-29T10:02:53;99311.84;;;11.15;100.00
71791;BME280;59638;52.126;5.434;2024-03-29T10:05:21;99310.47;;;11.05;100.00
71791;BME280;59638;52.126;5.434;2024-03-29T10:07:47;99300.97;;;10.96;100.00
71791;BME280;59638;52.126;5.434;2024-03-29T10:10:13;99289.09;;;11.14;100.00
71791;BME280;59638;52.126;5.434;2024-03-29T10:12:39;99286.31;;;11.31;100.00
71791;BME280;59638;52.126;5.434;2024-03-29T10:15:05;99290.16;;;11.43;100.00
71791;BME280;59638;52.126;5.434;2024-03-29T10:17:34;99289.13;;;11.74;100.00
71791;BME280;59638;52.126;5.434;2024-03-29T10:20:04;99272.78;;;12.29;100.00
71791;BME280;59638;52.126;5.434;2024-03-29T10:22:35;99280.66;;;12.44;100.00
71791;BME280;59638;52.126;5.434;2024-03-29T10:25:00;99280.50;;;12.31;100.00
71791;BME280;59638;52.126;5.434;2024-03-29T10:27:26;99286.81;;;12.30;100.00
71791;BME280;59638;52.126;5.434;2024-03-29T10:29:53;99292.97;;;12.15;100.00
71791;BME280;59638;52.126;5.434;2024-03-29T10:32:18;99275.75;;;12.84;100.00
71791;BME280;59638;52.126;5.434;2024-03-29T10:34:44;99288.13;;;13.54;100.00
71791;BME280;59638;52.126;5.434;2024-03-29T10:37:09;99286.94;;;13.63;100.00
71791;BME280;59638;52.126;5.434;2024-03-29T10:39:36;99286.94;;;13.63;100.00
71791;BME280;59638;52.126;5.434;2024-03-29T10:42:01;99290.19;;;13.65;100.00
71791;BME280;59638;52.126;5.434;2024-03-29T10:44:29;99290.81;;;13.60;100.00
71791;BME280;59638;52.126;5.434;2024-03-29T10:46:56;99305.66;;;13.55;100.00
71791;BME280;59638;52.126;5.434;2024-03-29T10:49:23;99292.19;;;13.56;100.00
71791;BME280;59638;52.126;5.434;2024-03-29T10:51:49;99293.88;;;13.64;100.00
71791;BME280;59638;52.126;5.434;2024-03-29T10:54:16;99285.13;;;14.11;100.00
71791;BME280;59638;52.126;5.434;2024-03-29T10:56:45;99285.56;;;14.15;100.00
71791;BME280;59638;52.126;5.434;2024-03-29T10:59:19;99300.56;;;13.95;100.00
71791;BME280;59638;52.126;5.434;2024-03-29T11:01:51;99302.41;;;13.94;98.36
71791;BME280;59638;52.126;5.434;2024-03-29T11:04:25;99310.47;;;13.79;99.45
71791;BME280;59638;52.126;5.434;2024-03-29T11:06:57;99313.78;;;13.53;100.00
71791;BME280;59638;52.126;5.434;2024-03-29T11:09:27;99311.66;;;13.14;100.00
71791;BME280;59638;52.126;5.434;2024-03-29T11:11:56;99315.72;;;12.89;100.00
71791;BME280;59638;52.126;5.434;2024-03-29T11:14:31;99330.84;;;12.95;100.00
71791;BME280;59638;52.126;5.434;2024-03-29T11:16:59;99337.66;;;13.25;100.00
71791;BME280;59638;52.126;5.434;2024-03-29T11:19:24;99329.06;;;13.23;100.00
71791;BME280;59638;52.126;5.434;2024-03-29T11:21:51;99315.22;;;13.91;100.00
71791;BME280;59638;52.126;5.434;2024-03-29T11:24:17;99302.44;;;14.62;100.00
71791;BME280;59638;52.126;5.434;2024-03-29T11:26:45;99308.84;;;14.87;93.61
71791;BME280;59638;52.126;5.434;2024-03-29T11:29:21;99301.66;;;14.75;91.93
71791;BME280;59638;52.126;5.434;2024-03-29T11:31:47;99296.91;;;14.57;94.47
71791;BME280;59638;52.126;5.434;2024-03-29T11:34:14;99295.19;;;14.29;95.15
71791;BME280;59638;52.126;5.434;2024-03-29T11:36:44;99304.72;;;14.10;94.17
71791;BME280;59638;52.126;5.434;2024-03-29T11:39:20;99304.97;;;13.74;94.89
71791;BME280;59638;52.126;5.434;2024-03-29T11:41:50;99304.63;;;13.91;95.80
71791;BME280;59638;52.126;5.434;2024-03-29T11:44:16;99297.84;;;14.29;95.73
71791;BME280;59638;52.126;5.434;2024-03-29T11:46:46;99300.31;;;14.44;95.69
71791;BME280;59638;52.126;5.434;2024-03-29T11:49:12;99307.06;;;14.40;97.80
71791;BME280;59638;52.126;5.434;2024-03-29T11:51:37;99311.91;;;14.23;91.68
71791;BME280;59638;52.126;5.434;2024-03-29T11:54:03;99317.28;;;13.88;89.41
71791;BME280;59638;52.126;5.434;2024-03-29T11:56:28;99310.72;;;13.84;91.15
71791;BME280;59638;52.126;5.434;2024-03-29T11:58:54;99323.50;;;14.09;90.40
71791;BME280;59638;52.126;5.434;2024-03-29T12:01:25;99323.53;;;14.22;88.60
71791;BME280;59638;52.126;5.434;2024-03-29T12:03:51;99318.41;;;14.14;86.48
71791;BME280;59638;52.126;5.434;2024-03-29T12:06:16;99330.03;;;14.06;88.96
71791;BME280;59638;52.126;5.434;2024-03-29T12:08:44;99325.91;;;14.04;88.70
71791;BME280;59638;52.126;5.434;2024-03-29T12:11:09;99328.91;;;13.87;89.81
71791;BME280;59638;52.126;5.434;2024-03-29T12:13:35;99339.97;;;13.63;90.31
71791;BME280;59638;52.126;5.434;2024-03-29T12:16:01;99352.22;;;13.64;91.99
71791;BME280;59638;52.126;5.434;2024-03-29T12:18:29;99349.81;;;13.69;90.54
71791;BME280;59638;52.126;5.434;2024-03-29T12:20:57;99357.56;;;13.71;91.75
71791;BME280;59638;52.126;5.434;2024-03-29T12:23:23;99351.63;;;13.69;91.01
71791;BME280;59638;52.126;5.434;2024-03-29T12:25:50;99347.59;;;13.79;91.39
71791;BME280;59638;52.126;5.434;2024-03-29T12:28:17;99352.34;;;13.84;89.08
71791;BME280;59638;52.126;5.434;2024-03-29T12:30:47;99333.56;;;14.20;85.17
71791;BME280;59638;52.126;5.434;2024-03-29T12:33:17;99348.09;;;14.37;88.87
71791;BME280;59638;52.126;5.434;2024-03-29T12:35:47;99342.88;;;14.57;85.03
71791;BME280;59638;52.126;5.434;2024-03-29T12:38:19;99342.50;;;14.67;83.74
71791;BME280;59638;52.126;5.434;2024-03-29T12:40:46;99354.16;;;14.66;80.78
71791;BME280;59638;52.126;5.434;2024-03-29T12:43:19;99362.50;;;14.63;81.85
71791;BME280;59638;52.126;5.434;2024-03-29T12:45:45;99364.34;;;14.56;83.95
71791;BME280;59638;52.126;5.434;2024-03-29T12:48:11;99360.69;;;14.70;85.55
71791;BME280;59638;52.126;5.434;2024-03-29T12:50:40;99351.13;;;14.82;85.00
71791;BME280;59638;52.126;5.434;2024-03-29T12:53:07;99342.13;;;14.83;79.83
71791;BME280;59638;52.126;5.434;2024-03-29T12:55:32;99360.03;;;14.55;83.09